Time;durP1;ratioP1;P1;durP2;ratioP2;P2;SDS_P1;SDS_P2;PMS_P1;PMS_P2;Temp;Humidity;BMP_temperature;BMP_pressure;BME280_temperature;BME280_humidity;BME280_pressure;Samples;Min_cycle;Max_cycle;Signal;HPM_P1;HPM_P2
2022/01/01 00:00:08;;;;;;;;;;;4.70;99.90;;;;;;5092428;28;20285;-76
2022/01/01 00:02:34;;;;;;;;;;;4.70;99.90;;;;;;5092297;28;19908;-76
2022/01/01 00:05:00;;;;;;;;;;;4.70;99.90;;;;;;5091497;28;19930;-74
2022/01/01 00:07:26;;;;;;;;;;;4.60;99.90;;;;;;5092814;28;20357;-74
2022/01/01 00:09:51;;;;;;;;;;;4.80;99.90;;;;;;5092975;28;19999;-74
2022/01/01 00:12:17;;;;;;;;;;;4.60;99.90;;;;;;5089440;28;19912;-76
2022/01/01 00:14:42;;;;;;;;;;;4.20;99.90;;;;;;5089273;28;19923;-76
2022/01/01 00:17:09;;;;;;;;;;;4.10;99.90;;;;;;5092711;28;20002;-74
2022/01/01 00:19:34;;;;;;;;;;;3.90;99.90;;;;;;5092341;28;20291;-74
2022/01/01 00:22:00;;;;;;;;;;;4.00;99.90;;;;;;5092329;28;19908;-76
2022/01/01 00:24:26;;;;;;;;;;;4.00;99.90;;;;;;5092617;28;20007;-77
2022/01/01 00:26:51;;;;;;;;;;;4.00;99.90;;;;;;5091702;28;20003;-76
2022/01/01 00:29:17;;;;;;;;;;;4.20;99.90;;;;;;5091370;28;20285;-73
2022/01/01 00:31:43;;;;;;;;;;;4.30;99.90;;;;;;5091654;28;20272;-74
2022/01/01 00:34:08;;;;;;;;;;;3.90;99.90;;;;;;5091098;28;20361;-74
2022/01/01 00:36:34;;;;;;;;;;;3.90;99.90;;;;;;5091632;28;19912;-74
2022/01/01 00:38:59;;;;;;;;;;;3.80;99.90;;;;;;5091385;28;19908;-73
2022/01/01 00:41:25;;;;;;;;;;;3.70;99.90;;;;;;5091453;28;20254;-74
2022/01/01 00:43:50;;;;;;;;;;;3.60;99.90;;;;;;5084811;28;19908;-74
2022/01/01 00:46:16;;;;;;;;;;;3.90;99.90;;;;;;5091062;28;19912;-74
2022/01/01 00:48:41;;;;;;;;;;;3.50;99.90;;;;;;5091296;28;19915;-74
2022/01/01 00:51:07;;;;;;;;;;;3.50;99.90;;;;;;5091406;28;19912;-74
2022/01/01 00:53:33;;;;;;;;;;;3.50;99.90;;;;;;5090875;28;19995;-74
2022/01/01 00:55:58;;;;;;;;;;;3.50;99.90;;;;;;5091123;28;19917;-73
2022/01/01 00:58:24;;;;;;;;;;;4.10;99.90;;;;;;5091667;28;19962;-74
2022/01/01 01:00:49;;;;;;;;;;;4.20;99.90;;;;;;5088651;28;20015;-77
2022/01/01 01:03:16;;;;;;;;;;;4.30;99.90;;;;;;5090339;28;19995;-74
2022/01/01 01:05:43;;;;;;;;;;;4.20;99.90;;;;;;5089273;28;19970;-74
2022/01/01 01:08:10;;;;;;;;;;;3.70;99.90;;;;;;5071104;28;19908;-74
2022/01/01 01:10:36;;;;;;;;;;;3.50;99.90;;;;;;5089632;28;19909;-74
2022/01/01 01:13:02;;;;;;;;;;;3.50;99.90;;;;;;5087866;28;20022;-74
2022/01/01 01:15:30;;;;;;;;;;;3.60;99.90;;;;;;5072177;28;20498;-75
2022/01/01 01:17:57;;;;;;;;;;;3.60;99.90;;;;;;5091123;28;19912;-75
2022/01/01 01:20:25;;;;;;;;;;;3.80;99.90;;;;;;5090343;28;20327;-74
2022/01/01 01:22:50;;;;;;;;;;;3.90;99.90;;;;;;5091089;28;19908;-74
2022/01/01 01:25:16;;;;;;;;;;;3.60;99.90;;;;;;5090711;28;19908;-74
2022/01/01 01:27:42;;;;;;;;;;;3.60;99.90;;;;;;5090890;28;20367;-73
2022/01/01 01:30:10;;;;;;;;;;;3.50;99.90;;;;;;5089644;28;20308;-73
2022/01/01 01:32:36;;;;;;;;;;;3.50;99.90;;;;;;5091130;28;19908;-73
2022/01/01 01:35:02;;;;;;;;;;;3.60;99.90;;;;;;5090766;28;19962;-73
2022/01/01 01:37:28;;;;;;;;;;;3.50;99.90;;;;;;5090966;28;19909;-73
2022/01/01 01:39:55;;;;;;;;;;;3.60;99.90;;;;;;5084491;28;19961;-73
2022/01/01 01:42:20;;;;;;;;;;;3.50;99.90;;;;;;5090729;28;20042;-75
2022/01/01 01:44:48;;;;;;;;;;;3.30;99.90;;;;;;5090066;28;19999;-74
2022/01/01 01:47:16;;;;;;;;;;;3.50;99.90;;;;;;5090819;28;19918;-74
2022/01/01 01:49:45;;;;;;;;;;;3.20;99.90;;;;;;5090771;28;19919;-73
2022/01/01 01:52:11;;;;;;;;;;;3.20;99.90;;;;;;5084096;28;19970;-74
2022/01/01 01:54:37;;;;;;;;;;;3.20;99.90;;;;;;5090339;28;19923;-74
2022/01/01 01:57:03;;;;;;;;;;;3.40;99.90;;;;;;5090345;28;19912;-74
2022/01/01 01:59:28;;;;;;;;;;;3.80;99.90;;;;;;5090543;28;19916;-73
2022/01/01 02:01:54;;;;;;;;;;;4.20;99.90;;;;;;5093145;28;19923;-73
2022/01/01 02:04:19;;;;;;;;;;;4.50;99.90;;;;;;5093747;28;19912;-75
2022/01/01 02:06:45;;;;;;;;;;;4.80;99.90;;;;;;5094266;28;19912;-75
2022/01/01 02:09:11;;;;;;;;;;;5.10;99.90;;;;;;5094541;28;20010;-75
2022/01/01 02:11:38;;;;;;;;;;;5.40;99.90;;;;;;5094295;28;19915;-78
2022/01/01 02:14:09;;;;;;;;;;;5.50;99.90;;;;;;5068003;28;19908;-77
2022/01/01 02:17:08;;;;;;;;;;;5.50;99.90;;;;;;5089548;28;19963;-75
2022/01/01 02:19:43;;;;;;;;;;;5.60;99.90;;;;;;5094563;28;20489;-75
2022/01/01 02:22:10;;;;;;;;;;;5.70;99.90;;;;;;5094046;28;19995;-75
2022/01/01 02:24:36;;;;;;;;;;;5.80;99.90;;;;;;5093706;28;19934;-75
2022/01/01 02:27:01;;;;;;;;;;;5.90;99.90;;;;;;5093864;28;19916;-78
2022/01/01 02:29:27;;;;;;;;;;;5.70;99.90;;;;;;5094237;28;19927;-75
2022/01/01 02:31:53;;;;;;;;;;;4.60;99.90;;;;;;5094002;28;20288;-74
2022/01/01 02:34:19;;;;;;;;;;;3.80;99.90;;;;;;5093409;28;19908;-75
2022/01/01 02:36:45;;;;;;;;;;;3.40;99.90;;;;;;5075397;28;19908;-75
2022/01/01 02:39:12;;;;;;;;;;;3.20;99.90;;;;;;5090864;28;19912;-76
2022/01/01 02:41:37;;;;;;;;;;;3.10;99.90;;;;;;5089944;28;20320;-75
2022/01/01 02:44:05;;;;;;;;;;;3.30;99.90;;;;;;5087788;28;19908;-75
2022/01/01 02:46:31;;;;;;;;;;;3.30;99.90;;;;;;5067400;28;19961;-75
2022/01/01 02:48:56;;;;;;;;;;;3.70;99.90;;;;;;5092416;28;19912;-76
2022/01/01 02:51:22;;;;;;;;;;;4.00;99.90;;;;;;5092522;28;20351;-76
2022/01/01 02:53:47;;;;;;;;;;;4.10;99.90;;;;;;5092402;28;19923;-75
2022/01/01 02:56:13;;;;;;;;;;;4.20;99.90;;;;;;5093364;28;20322;-75
2022/01/01 02:58:39;;;;;;;;;;;4.10;99.90;;;;;;5093094;28;19943;-77
2022/01/01 03:01:04;;;;;;;;;;;4.20;99.90;;;;;;5074901;28;20003;-75
2022/01/01 03:03:30;;;;;;;;;;;4.30;99.90;;;;;;5092508;28;20023;-78
2022/01/01 03:05:55;;;;;;;;;;;4.30;99.90;;;;;;5093180;28;19912;-75
2022/01/01 03:08:21;;;;;;;;;;;4.50;99.90;;;;;;5092979;28;19969;-76
2022/01/01 03:10:47;;;;;;;;;;;5.00;99.90;;;;;;5092956;28;19995;-76
2022/01/01 03:13:12;;;;;;;;;;;5.30;99.90;;;;;;5079539;28;19919;-77
2022/01/01 03:15:38;;;;;;;;;;;5.40;99.90;;;;;;5092194;28;19951;-75
2022/01/01 03:18:03;;;;;;;;;;;5.50;99.90;;;;;;5092922;28;19995;-75
2022/01/01 03:20:29;;;;;;;;;;;5.60;99.90;;;;;;5092681;28;19908;-75
2022/01/01 03:22:55;;;;;;;;;;;5.70;99.90;;;;;;5092545;28;20398;-78
2022/01/01 03:25:20;;;;;;;;;;;5.70;99.90;;;;;;5092159;28;20400;-75
2022/01/01 03:27:46;;;;;;;;;;;5.80;99.90;;;;;;5074425;28;19912;-75
2022/01/01 03:30:11;;;;;;;;;;;6.00;99.90;;;;;;5092284;28;19908;-75
2022/01/01 03:32:37;;;;;;;;;;;6.00;99.90;;;;;;5092567;28;19915;-75
2022/01/01 03:35:02;;;;;;;;;;;6.10;99.90;;;;;;5091979;28;20407;-75
2022/01/01 03:37:29;;;;;;;;;;;6.00;99.90;;;;;;5092850;28;19909;-75
2022/01/01 03:39:55;;;;;;;;;;;5.90;99.90;;;;;;5073844;28;19931;-75
2022/01/01 03:42:20;;;;;;;;;;;5.90;99.90;;;;;;5070663;28;20440;-76
2022/01/01 03:44:46;;;;;;;;;;;5.90;99.90;;;;;;5089237;28;19915;-75
2022/01/01 03:47:11;;;;;;;;;;;6.00;99.90;;;;;;5092033;28;20454;-79
2022/01/01 03:49:37;;;;;;;;;;;6.10;99.90;;;;;;5092939;28;19912;-76
2022/01/01 03:52:03;;;;;;;;;;;6.00;99.90;;;;;;5092299;28;19959;-75
2022/01/01 03:54:28;;;;;;;;;;;6.10;99.90;;;;;;5091738;28;20373;-76
2022/01/01 03:56:54;;;;;;;;;;;6.10;99.90;;;;;;5092149;28;20372;-76
2022/01/01 03:59:20;;;;;;;;;;;6.10;99.90;;;;;;5073800;28;20002;-75
2022/01/01 04:01:46;;;;;;;;;;;6.10;99.90;;;;;;5091839;28;19915;-77
2022/01/01 04:04:11;;;;;;;;;;;6.10;99.90;;;;;;5091604;28;19908;-75
2022/01/01 04:06:37;;;;;;;;;;;6.20;99.90;;;;;;5091594;28;19912;-75
2022/01/01 04:09:02;;;;;;;;;;;6.10;99.90;;;;;;5091583;28;20027;-75
2022/01/01 04:11:28;;;;;;;;;;;6.20;99.90;;;;;;5091627;28;19931;-77
2022/01/01 04:13:53;;;;;;;;;;;6.20;99.90;;;;;;5090696;28;19920;-75
2022/01/01 04:16:20;;;;;;;;;;;6.10;99.90;;;;;;5091417;28;19916;-75
2022/01/01 04:18:46;;;;;;;;;;;6.10;99.90;;;;;;5091721;28;19908;-77
2022/01/01 04:21:12;;;;;;;;;;;6.30;99.90;;;;;;5091589;28;19909;-75
2022/01/01 04:23:41;;;;;;;;;;;6.30;99.90;;;;;;5084198;28;19908;-76
2022/01/01 04:26:07;;;;;;;;;;;6.20;99.90;;;;;;5091334;28;19919;-76
2022/01/01 04:28:33;;;;;;;;;;;6.10;99.90;;;;;;5091438;28;20338;-75
2022/01/01 04:30:59;;;;;;;;;;;6.00;99.90;;;;;;5066579;28;19912;-75
2022/01/01 04:33:24;;;;;;;;;;;6.00;99.90;;;;;;5091052;28;19912;-78
2022/01/01 04:35:50;;;;;;;;;;;6.10;99.90;;;;;;5091324;28;19908;-75
2022/01/01 04:40:59;;;;;;;;;;;5.70;99.90;;;;;;5091254;28;19908;-76
2022/01/01 04:43:25;;;;;;;;;;;5.50;99.90;;;;;;5086008;28;20637;-78
2022/01/01 04:45:50;;;;;;;;;;;5.30;99.90;;;;;;5090846;28;19908;-75
2022/01/01 04:48:16;;;;;;;;;;;5.20;99.90;;;;;;5091336;28;20364;-75
2022/01/01 04:50:41;;;;;;;;;;;5.10;99.90;;;;;;5091241;28;20356;-76
2022/01/01 04:53:07;;;;;;;;;;;5.00;99.90;;;;;;5090537;28;20357;-77
2022/01/01 04:55:33;;;;;;;;;;;5.10;99.90;;;;;;5085154;28;20016;-76
2022/01/01 04:57:58;;;;;;;;;;;4.90;99.90;;;;;;5073107;28;19916;-75
2022/01/01 05:00:24;;;;;;;;;;;4.90;99.90;;;;;;5091318;28;19908;-75
2022/01/01 05:02:49;;;;;;;;;;;4.70;99.90;;;;;;5090837;28;20307;-75
2022/01/01 05:05:15;;;;;;;;;;;4.50;99.90;;;;;;5091083;28;19934;-75
2022/01/01 05:07:43;;;;;;;;;;;4.20;99.90;;;;;;5090930;28;19912;-74
2022/01/01 05:10:08;;;;;;;;;;;3.90;99.90;;;;;;5091078;28;19974;-76
2022/01/01 05:12:34;;;;;;;;;;;3.80;99.90;;;;;;5090805;28;19908;-75
2022/01/01 05:15:00;;;;;;;;;;;3.60;99.90;;;;;;5090050;28;19916;-75
2022/01/01 05:17:25;;;;;;;;;;;3.60;99.90;;;;;;5090963;28;19966;-76
2022/01/01 05:19:51;;;;;;;;;;;3.80;99.90;;;;;;5091053;28;20431;-75
2022/01/01 05:22:16;;;;;;;;;;;4.30;99.90;;;;;;5090871;28;19908;-74
2022/01/01 05:24:42;;;;;;;;;;;4.00;99.90;;;;;;5090491;28;20361;-75
2022/01/01 05:27:07;;;;;;;;;;;3.80;99.90;;;;;;5090808;28;19916;-77
2022/01/01 05:29:33;;;;;;;;;;;3.60;99.90;;;;;;5072880;28;19908;-74
2022/01/01 05:31:58;;;;;;;;;;;3.50;99.90;;;;;;5091126;28;20364;-75
2022/01/01 05:34:24;;;;;;;;;;;3.50;99.90;;;;;;5090573;28;19954;-76
2022/01/01 05:36:49;;;;;;;;;;;3.50;99.90;;;;;;5094078;28;19995;-75
2022/01/01 05:39:15;;;;;;;;;;;3.50;99.90;;;;;;5094939;28;20014;-75
2022/01/01 05:41:40;;;;;;;;;;;3.40;99.90;;;;;;5094967;28;19908;-75
2022/01/01 05:44:06;;;;;;;;;;;3.40;99.90;;;;;;5091277;28;20025;-80
2022/01/01 05:46:32;;;;;;;;;;;3.50;99.90;;;;;;5094701;28;20429;-74
2022/01/01 05:48:57;;;;;;;;;;;3.50;99.90;;;;;;5076662;28;19915;-75
2022/01/01 05:51:23;;;;;;;;;;;3.40;99.90;;;;;;5094968;28;19912;-75
2022/01/01 05:53:48;;;;;;;;;;;3.60;99.90;;;;;;5094226;28;19909;-75
2022/01/01 05:56:14;;;;;;;;;;;3.70;99.90;;;;;;5094678;28;20007;-74
2022/01/01 05:58:40;;;;;;;;;;;3.80;99.90;;;;;;5094627;28;20420;-75
2022/01/01 06:01:05;;;;;;;;;;;3.70;99.90;;;;;;5094836;28;19922;-75
2022/01/01 06:03:31;;;;;;;;;;;3.70;99.90;;;;;;5094035;28;19909;-78
2022/01/01 06:05:57;;;;;;;;;;;4.00;99.90;;;;;;5087757;28;19908;-77
2022/01/01 06:08:24;;;;;;;;;;;4.30;99.90;;;;;;5094317;28;20394;-75
2022/01/01 06:10:49;;;;;;;;;;;4.20;99.90;;;;;;5094247;28;19953;-75
2022/01/01 06:13:15;;;;;;;;;;;4.10;99.90;;;;;;5093797;28;20385;-76
2022/01/01 06:15:42;;;;;;;;;;;4.00;99.90;;;;;;5093844;28;19916;-74
2022/01/01 06:18:07;;;;;;;;;;;4.00;99.90;;;;;;5094276;28;19915;-76
2022/01/01 06:20:33;;;;;;;;;;;3.90;99.90;;;;;;5094111;28;19908;-74
2022/01/01 06:23:00;;;;;;;;;;;4.40;99.90;;;;;;5093890;28;20210;-75
2022/01/01 06:25:25;;;;;;;;;;;4.30;99.90;;;;;;5093775;28;19912;-76
2022/01/01 06:27:51;;;;;;;;;;;4.10;99.90;;;;;;5093974;28;19912;-74
2022/01/01 06:30:16;;;;;;;;;;;3.80;99.90;;;;;;5093920;28;20369;-74
2022/01/01 06:32:42;;;;;;;;;;;3.70;99.90;;;;;;5075820;28;19912;-75
2022/01/01 06:35:07;;;;;;;;;;;3.70;99.90;;;;;;5093397;28;19908;-79
2022/01/01 06:37:33;;;;;;;;;;;3.60;99.90;;;;;;5093911;28;19908;-75
2022/01/01 06:39:58;;;;;;;;;;;3.70;99.90;;;;;;5093647;28;20002;-75
2022/01/01 06:42:24;;;;;;;;;;;4.10;99.90;;;;;;5075626;28;19922;-75
2022/01/01 06:44:49;;;;;;;;;;;4.40;99.90;;;;;;5092408;28;19908;-74
2022/01/01 06:47:15;;;;;;;;;;;4.60;99.90;;;;;;5093576;28;19960;-75
2022/01/01 06:49:40;;;;;;;;;;;4.70;99.90;;;;;;5093529;28;19908;-75
2022/01/01 06:52:06;;;;;;;;;;;4.80;99.90;;;;;;5093551;28;19912;-77
2022/01/01 06:54:31;;;;;;;;;;;4.90;99.90;;;;;;5092921;28;20390;-75
2022/01/01 06:56:57;;;;;;;;;;;4.90;99.90;;;;;;5093630;28;19954;-75
2022/01/01 06:59:23;;;;;;;;;;;4.70;99.90;;;;;;5093453;28;19912;-75
2022/01/01 07:01:48;;;;;;;;;;;4.50;99.90;;;;;;5093762;28;19908;-77
2022/01/01 07:04:14;;;;;;;;;;;4.80;99.90;;;;;;5093232;28;19908;-74
2022/01/01 07:06:39;;;;;;;;;;;4.90;99.90;;;;;;5093454;28;19965;-74
2022/01/01 07:09:06;;;;;;;;;;;4.90;99.90;;;;;;5093560;28;19908;-74
2022/01/01 07:11:31;;;;;;;;;;;4.90;99.90;;;;;;5075413;28;19916;-75
2022/01/01 07:13:57;;;;;;;;;;;4.80;99.90;;;;;;5084257;28;19912;-75
2022/01/01 07:16:22;;;;;;;;;;;4.60;99.90;;;;;;5093066;28;19923;-78
2022/01/01 07:18:48;;;;;;;;;;;4.60;99.90;;;;;;5093195;28;19922;-75
2022/01/01 07:21:14;;;;;;;;;;;4.60;99.90;;;;;;5092763;28;19919;-75
2022/01/01 07:23:39;;;;;;;;;;;4.40;99.90;;;;;;5092359;28;19912;-75
2022/01/01 07:26:05;;;;;;;;;;;4.10;99.90;;;;;;5092668;28;19957;-78
2022/01/01 07:28:30;;;;;;;;;;;3.80;99.90;;;;;;5093409;28;19931;-74
2022/01/01 07:30:55;;;;;;;;;;;3.80;99.90;;;;;;5094430;28;20007;-75
2022/01/01 07:33:21;;;;;;;;;;;4.00;99.90;;;;;;5093486;28;19916;-76
2022/01/01 07:35:47;;;;;;;;;;;4.00;99.90;;;;;;5093331;28;19915;-74
2022/01/01 07:38:12;;;;;;;;;;;3.90;99.90;;;;;;5093090;28;19912;-75
2022/01/01 07:40:39;;;;;;;;;;;3.90;99.90;;;;;;5093022;28;19908;-75
2022/01/01 07:43:12;;;;;;;;;;;4.00;99.90;;;;;;5089270;28;19986;-75
2022/01/01 07:45:38;;;;;;;;;;;3.90;99.90;;;;;;5089460;28;19915;-75
2022/01/01 07:48:03;;;;;;;;;;;3.70;99.90;;;;;;5093155;28;20368;-79
2022/01/01 07:50:29;;;;;;;;;;;3.50;99.90;;;;;;5093089;28;19908;-75
2022/01/01 07:52:54;;;;;;;;;;;3.40;99.90;;;;;;5092425;28;20316;-73
2022/01/01 07:55:20;;;;;;;;;;;3.40;99.90;;;;;;5092242;28;19959;-73
2022/01/01 07:57:45;;;;;;;;;;;3.40;99.90;;;;;;5092250;28;20319;-76
2022/01/01 08:00:11;;;;;;;;;;;3.30;99.90;;;;;;5092740;28;19995;-73
2022/01/01 08:02:38;;;;;;;;;;;3.40;99.90;;;;;;5092338;28;19938;-73
2022/01/01 08:05:03;;;;;;;;;;;3.40;99.90;;;;;;5091924;28;20280;-73
2022/01/01 08:07:29;;;;;;;;;;;3.50;99.90;;;;;;5092460;28;20234;-73
2022/01/01 08:09:54;;;;;;;;;;;3.60;99.90;;;;;;5092217;28;20361;-73
2022/01/01 08:12:20;;;;;;;;;;;3.60;99.90;;;;;;5073808;28;19912;-73
2022/01/01 08:14:45;;;;;;;;;;;3.70;99.90;;;;;;5091394;28;19923;-73
2022/01/01 08:17:11;;;;;;;;;;;3.70;99.90;;;;;;5092234;28;19908;-73
2022/01/01 08:19:38;;;;;;;;;;;3.60;99.90;;;;;;5092058;28;19999;-73
2022/01/01 08:22:04;;;;;;;;;;;3.60;99.90;;;;;;5091677;28;20429;-73
2022/01/01 08:24:29;;;;;;;;;;;3.60;99.90;;;;;;5092035;28;19908;-73
2022/01/01 08:26:55;;;;;;;;;;;3.80;99.90;;;;;;5092077;28;19965;-73
2022/01/01 08:29:21;;;;;;;;;;;3.80;99.90;;;;;;5092267;28;19918;-73
2022/01/01 08:31:47;;;;;;;;;;;4.00;99.90;;;;;;5091921;28;19908;-74
2022/01/01 08:34:12;;;;;;;;;;;4.10;99.90;;;;;;5091226;28;20015;-74
2022/01/01 08:36:38;;;;;;;;;;;4.10;99.90;;;;;;5091818;28;20010;-73
2022/01/01 08:39:05;;;;;;;;;;;4.90;99.90;;;;;;5091779;28;19961;-74
2022/01/01 08:41:31;;;;;;;;;;;5.60;99.90;;;;;;5085299;28;19999;-75
2022/01/01 08:43:57;;;;;;;;;;;6.00;99.90;;;;;;5087745;28;19974;-74
2022/01/01 08:46:22;;;;;;;;;;;6.30;99.90;;;;;;5091597;28;20396;-74
2022/01/01 08:48:48;;;;;;;;;;;6.30;99.90;;;;;;5091633;28;20288;-74
2022/01/01 08:51:15;;;;;;;;;;;6.30;99.90;;;;;;5091429;28;20006;-74
2022/01/01 08:53:40;;;;;;;;;;;6.50;99.90;;;;;;5092235;28;19908;-74
2022/01/01 08:56:07;;;;;;;;;;;7.20;99.90;;;;;;5092216;28;19915;-74
2022/01/01 08:58:33;;;;;;;;;;;7.80;99.90;;;;;;5073538;28;19919;-75
2022/01/01 09:00:59;;;;;;;;;;;8.30;99.90;;;;;;5092097;28;19954;-75
2022/01/01 09:03:25;;;;;;;;;;;8.60;99.90;;;;;;5091098;28;19912;-77
2022/01/01 09:05:50;;;;;;;;;;;8.80;99.90;;;;;;5091764;28;19908;-74
2022/01/01 09:08:16;;;;;;;;;;;8.90;99.90;;;;;;5091587;28;20357;-74
2022/01/01 09:10:41;;;;;;;;;;;9.10;99.90;;;;;;5092778;28;19908;-76
2022/01/01 09:13:07;;;;;;;;;;;10.20;99.90;;;;;;5089951;28;20365;-75
2022/01/01 09:15:32;;;;;;;;;;;10.80;99.90;;;;;;5089850;28;19920;-75
2022/01/01 09:17:58;;;;;;;;;;;12.00;99.90;;;;;;5095452;28;19908;-75
2022/01/01 09:20:23;;;;;;;;;;;12.70;99.90;;;;;;5095710;28;19908;-72
2022/01/01 09:22:48;;;;;;;;;;;13.70;99.90;;;;;;5095840;28;19946;-73
2022/01/01 09:25:14;;;;;;;;;;;14.00;99.90;;;;;;5095337;28;20418;-73
2022/01/01 09:27:40;;;;;;;;;;;14.60;99.90;;;;;;5095661;28;19912;-75
2022/01/01 09:30:05;;;;;;;;;;;14.90;99.70;;;;;;5095967;28;19999;-73
2022/01/01 09:32:32;;;;;;;;;;;15.20;98.20;;;;;;5095390;28;19908;-73
2022/01/01 09:34:58;;;;;;;;;;;15.40;98.30;;;;;;5094975;28;20029;-74
2022/01/01 09:37:23;;;;;;;;;;;15.90;97.00;;;;;;5095359;28;19908;-73
2022/01/01 09:39:49;;;;;;;;;;;16.00;96.30;;;;;;5095195;28;19908;-74
2022/01/01 09:42:15;;;;;;;;;;;15.80;95.80;;;;;;5093648;28;19913;-74
2022/01/01 09:44:41;;;;;;;;;;;15.00;96.20;;;;;;5094000;28;20394;-74
2022/01/01 09:47:07;;;;;;;;;;;15.00;96.10;;;;;;5094882;28;19986;-74
2022/01/01 09:49:32;;;;;;;;;;;14.40;97.70;;;;;;5094820;28;19911;-76
2022/01/01 09:51:58;;;;;;;;;;;14.50;98.10;;;;;;5094949;28;20277;-74
2022/01/01 09:54:23;;;;;;;;;;;15.20;97.40;;;;;;5094201;28;19943;-73
2022/01/01 09:56:49;;;;;;;;;;;14.60;97.40;;;;;;5094983;28;19916;-73
2022/01/01 09:59:14;;;;;;;;;;;14.80;97.00;;;;;;5076387;28;20353;-76
2022/01/01 10:01:40;;;;;;;;;;;14.90;97.80;;;;;;5094631;28;19908;-74
2022/01/01 10:04:13;;;;;;;;;;;15.70;96.40;;;;;;5093998;28;20361;-74
2022/01/01 10:06:38;;;;;;;;;;;17.00;94.80;;;;;;5087999;28;19919;-74
2022/01/01 10:09:06;;;;;;;;;;;16.60;95.00;;;;;;5094665;28;19908;-74
2022/01/01 10:11:33;;;;;;;;;;;18.10;93.60;;;;;;5094176;28;19912;-75
2022/01/01 10:13:59;;;;;;;;;;;19.10;91.90;;;;;;5089931;28;20292;-74
2022/01/01 10:16:24;;;;;;;;;;;19.10;91.10;;;;;;5093880;28;19912;-74
2022/01/01 10:18:51;;;;;;;;;;;19.50;90.50;;;;;;5094339;28;20020;-74
2022/01/01 10:21:18;;;;;;;;;;;20.30;88.20;;;;;;5094026;28;19908;-76
2022/01/01 10:23:46;;;;;;;;;;;19.90;88.30;;;;;;5094219;28;19962;-74
2022/01/01 10:29:26;;;;;;;;;;;20.00;86.50;;;;;;5031472;28;19988;-74
2022/01/01 10:31:59;;;;;;;;;;;18.30;90.20;;;;;;5032473;28;19909;-74
2022/01/01 10:34:35;;;;;;;;;;;17.30;91.20;;;;;;5068026;28;19912;-74
2022/01/01 10:37:02;;;;;;;;;;;15.90;92.70;;;;;;5088328;28;19947;-74
2022/01/01 10:39:28;;;;;;;;;;;15.70;94.60;;;;;;5076250;28;19908;-74
2022/01/01 10:41:55;;;;;;;;;;;14.90;94.50;;;;;;5094320;28;20314;-74
2022/01/01 10:44:31;;;;;;;;;;;14.50;96.00;;;;;;5086877;28;19912;-73
2022/01/01 10:46:58;;;;;;;;;;;14.50;96.80;;;;;;5093435;28;20372;-74
2022/01/01 10:49:51;;;;;;;;;;;16.20;95.40;;;;;;5093817;28;19956;-76
2022/01/01 10:52:18;;;;;;;;;;;15.30;96.40;;;;;;5093994;28;19908;-74
2022/01/01 10:54:47;;;;;;;;;;;15.60;96.60;;;;;;5093871;28;20313;-74
2022/01/01 10:57:12;;;;;;;;;;;14.50;98.20;;;;;;5093538;28;20104;-74
2022/01/01 10:59:38;;;;;;;;;;;14.30;99.30;;;;;;5093558;28;20448;-75
2022/01/01 11:02:07;;;;;;;;;;;13.70;99.90;;;;;;5093544;28;19909;-75
2022/01/01 11:04:33;;;;;;;;;;;14.00;99.90;;;;;;5093119;28;19915;-75
2022/01/01 11:06:59;;;;;;;;;;;14.10;99.90;;;;;;5075295;28;19955;-74
2022/01/01 11:09:24;;;;;;;;;;;13.40;99.90;;;;;;5075061;28;19946;-77
2022/01/01 11:11:50;;;;;;;;;;;13.30;99.90;;;;;;5093437;28;19912;-74
2022/01/01 11:14:16;;;;;;;;;;;13.30;99.90;;;;;;5091981;28;19935;-75
2022/01/01 11:16:42;;;;;;;;;;;12.70;99.90;;;;;;5093265;28;19908;-75
2022/01/01 11:19:08;;;;;;;;;;;12.30;99.90;;;;;;5092934;28;20102;-74
2022/01/01 11:21:33;;;;;;;;;;;12.20;99.90;;;;;;5093038;28;20399;-74
2022/01/01 11:23:59;;;;;;;;;;;12.30;99.90;;;;;;5092458;28;19916;-74
2022/01/01 11:26:26;;;;;;;;;;;12.20;99.90;;;;;;5092803;28;20403;-74
2022/01/01 11:28:52;;;;;;;;;;;12.30;99.90;;;;;;5092700;28;20004;-74
2022/01/01 11:31:18;;;;;;;;;;;12.30;99.90;;;;;;5092923;28;20422;-75
2022/01/01 11:33:49;;;;;;;;;;;12.30;99.90;;;;;;5091122;28;19908;-74
2022/01/01 11:36:19;;;;;;;;;;;12.30;99.90;;;;;;5092761;28;20349;-75
2022/01/01 11:38:44;;;;;;;;;;;12.30;99.90;;;;;;5092736;28;19908;-74
2022/01/01 11:41:11;;;;;;;;;;;12.20;99.90;;;;;;5092689;28;20326;-74
2022/01/01 11:43:41;;;;;;;;;;;12.10;99.90;;;;;;5091328;28;20408;-74
2022/01/01 11:46:10;;;;;;;;;;;12.20;99.90;;;;;;5089220;28;19955;-74
2022/01/01 11:48:38;;;;;;;;;;;12.10;99.90;;;;;;5092434;28;19908;-74
2022/01/01 11:51:19;;;;;;;;;;;12.10;99.90;;;;;;5092721;28;19908;-74
2022/01/01 11:54:03;;;;;;;;;;;12.10;99.90;;;;;;5091845;28;19909;-74
2022/01/01 11:56:51;;;;;;;;;;;12.00;99.90;;;;;;5092301;28;19908;-74
2022/01/01 11:59:20;;;;;;;;;;;12.10;99.90;;;;;;5092232;28;20422;-74
2022/01/01 12:01:47;;;;;;;;;;;12.10;99.90;;;;;;5092288;28;19909;-75
2022/01/01 12:04:24;;;;;;;;;;;12.10;99.90;;;;;;5073457;28;19915;-74
2022/01/01 12:07:08;;;;;;;;;;;12.10;99.90;;;;;;5092040;28;19912;-76
2022/01/01 12:09:47;;;;;;;;;;;11.90;99.90;;;;;;5091897;28;19908;-74
2022/01/01 12:12:13;;;;;;;;;;;11.90;99.90;;;;;;5092087;28;19908;-74
2022/01/01 12:14:39;;;;;;;;;;;12.10;99.90;;;;;;5089817;28;19922;-74
2022/01/01 12:17:05;;;;;;;;;;;12.20;99.90;;;;;;5091703;28;19999;-74
2022/01/01 12:19:35;;;;;;;;;;;12.30;99.90;;;;;;5091789;28;19908;-74
2022/01/01 12:22:05;;;;;;;;;;;12.10;99.90;;;;;;5092040;28;19912;-74
2022/01/01 12:24:35;;;;;;;;;;;12.10;99.90;;;;;;5091265;28;19957;-73
2022/01/01 12:27:04;;;;;;;;;;;12.20;99.90;;;;;;5091601;28;19995;-74
2022/01/01 12:29:30;;;;;;;;;;;12.20;99.90;;;;;;5091690;28;19908;-76
2022/01/01 12:31:56;;;;;;;;;;;12.10;99.90;;;;;;5091606;28;19908;-74
2022/01/01 12:34:22;;;;;;;;;;;12.20;99.90;;;;;;5091083;28;19908;-73
2022/01/01 12:36:52;;;;;;;;;;;12.20;99.90;;;;;;5091578;28;20316;-73
2022/01/01 12:39:17;;;;;;;;;;;12.20;99.90;;;;;;5091672;28;20057;-74
2022/01/01 12:41:46;;;;;;;;;;;12.20;99.90;;;;;;5091641;28;20007;-73
2022/01/01 12:44:19;;;;;;;;;;;12.20;99.90;;;;;;5088257;28;19958;-75
2022/01/01 12:46:44;;;;;;;;;;;12.20;99.90;;;;;;5091052;28;20419;-74
2022/01/01 12:49:10;;;;;;;;;;;12.00;99.90;;;;;;5091407;28;19948;-72
2022/01/01 12:51:39;;;;;;;;;;;12.20;99.90;;;;;;5091575;28;19951;-73
2022/01/01 12:54:04;;;;;;;;;;;12.30;99.90;;;;;;5090866;28;19908;-74
2022/01/01 12:56:30;;;;;;;;;;;12.10;99.90;;;;;;5091299;28;19953;-74
2022/01/01 12:58:57;;;;;;;;;;;11.80;99.90;;;;;;5091156;28;20325;-73
2022/01/01 13:01:27;;;;;;;;;;;12.00;99.90;;;;;;5091871;28;19919;-76
2022/01/01 13:03:52;;;;;;;;;;;11.80;99.90;;;;;;5090883;28;19908;-73
2022/01/01 13:06:24;;;;;;;;;;;11.90;99.90;;;;;;5091486;28;20372;-73
2022/01/01 13:08:50;;;;;;;;;;;11.90;99.90;;;;;;5073405;28;20281;-74
2022/01/01 13:11:16;;;;;;;;;;;11.90;99.90;;;;;;5091110;28;19908;-74
2022/01/01 13:13:42;;;;;;;;;;;12.00;99.90;;;;;;5090282;28;19950;-75
2022/01/01 13:16:08;;;;;;;;;;;12.00;99.90;;;;;;5090814;28;19919;-73
2022/01/01 13:18:33;;;;;;;;;;;11.90;99.90;;;;;;5091159;28;20350;-76
2022/01/01 13:20:59;;;;;;;;;;;11.90;99.90;;;;;;5090955;28;20431;-73
2022/01/01 13:23:24;;;;;;;;;;;11.90;99.90;;;;;;5090723;28;19930;-73
2022/01/01 13:25:54;;;;;;;;;;;11.90;99.90;;;;;;5072854;28;19912;-73
2022/01/01 13:28:29;;;;;;;;;;;11.90;99.90;;;;;;5072984;28;20321;-76
2022/01/01 13:30:54;;;;;;;;;;;11.90;99.90;;;;;;5091076;28;19961;-72
2022/01/01 13:33:22;;;;;;;;;;;12.00;99.90;;;;;;5090658;28;19913;-73
2022/01/01 13:35:51;;;;;;;;;;;12.00;99.90;;;;;;5091476;28;20336;-73
2022/01/01 13:38:17;;;;;;;;;;;12.00;99.90;;;;;;5091160;28;19908;-74
2022/01/01 13:40:43;;;;;;;;;;;11.90;99.90;;;;;;5089469;28;20273;-72
2022/01/01 13:43:09;;;;;;;;;;;11.80;99.90;;;;;;5090603;28;19908;-72
2022/01/01 13:45:35;;;;;;;;;;;11.70;99.90;;;;;;5090662;28;19912;-72
2022/01/01 13:48:04;;;;;;;;;;;11.60;99.90;;;;;;5085900;28;19919;-72
2022/01/01 13:50:37;;;;;;;;;;;11.60;99.90;;;;;;5091016;28;19912;-72
2022/01/01 13:53:05;;;;;;;;;;;11.50;99.90;;;;;;5089913;28;20383;-74
2022/01/01 13:55:31;;;;;;;;;;;11.40;99.90;;;;;;5090515;28;19993;-73
2022/01/01 13:58:01;;;;;;;;;;;11.30;99.90;;;;;;5075918;28;20265;-73
2022/01/01 14:00:26;;;;;;;;;;;11.30;99.90;;;;;;5093636;28;19993;-76
2022/01/01 14:02:54;;;;;;;;;;;11.30;99.90;;;;;;5094226;28;19955;-72
2022/01/01 14:05:20;;;;;;;;;;;11.30;99.90;;;;;;5093523;28;20385;-73
2022/01/01 14:07:46;;;;;;;;;;;11.20;99.90;;;;;;5092846;28;20459;-73
2022/01/01 14:10:14;;;;;;;;;;;11.20;99.90;;;;;;5094126;28;19934;-72
2022/01/01 14:12:50;;;;;;;;;;;10.80;99.90;;;;;;5093712;28;19908;-73
2022/01/01 14:15:17;;;;;;;;;;;10.50;99.90;;;;;;5093107;28;19962;-72
2022/01/01 14:17:55;;;;;;;;;;;10.20;99.90;;;;;;5092032;28;19908;-72
2022/01/01 14:20:22;;;;;;;;;;;10.10;99.90;;;;;;5074134;28;19930;-76
2022/01/01 14:22:47;;;;;;;;;;;10.00;99.90;;;;;;5093882;28;19948;-72
2022/01/01 14:25:13;;;;;;;;;;;9.90;99.90;;;;;;5093580;28;20366;-72
2022/01/01 14:27:39;;;;;;;;;;;10.00;99.90;;;;;;5092240;28;20376;-76